Euskara    
Meteorología y climatología de Navarra
Datos de la estación - Meteo Navarra

Estación de Bera (Larrategaña) GN

Altitud 306 m.


Datos desde el 08/04/2021 hasta el 09/04/2021 en horario solar
Los datos son PROVISIONALES

Anterior Página 1 de 1 Siguiente Descargar: Formato para Excel 2000 o superior   Formato csv   Formato para OpenOffice Calc
Fecha Temperatura Humedad relativa Radiación global Insolación Precipitación Vel. viento 10 m Vel. viento 10 m Dir. viento 10 m
°C % W/m² s l/m² m/s km/h °
08/04/2021 0:00 5.1 58 0.0 0 0.0 1.1 3.8 232
08/04/2021 0:10 4.8 58 0.0 0 0.0 0.8 2.8 237
08/04/2021 0:20 5.2 56 0.0 0 0.0 0.9 3.1 240
08/04/2021 0:30 5.2 54 0.0 0 0.0 0.7 2.7 233
08/04/2021 0:40 5.2 53 0.0 0 0.0 0.5 1.6 242
08/04/2021 0:50 5.7 49 0.0 0 0.0 1.0 3.6 42
08/04/2021 1:00 5.9 49 0.0 0 0.0 0.8 2.9 25
08/04/2021 1:10 6.5 48 0.0 0 0.0 0.4 1.6 215
08/04/2021 1:20 7.0 47 0.0 0 0.0 0.8 3.0 217
08/04/2021 1:30 7.8 46 0.0 0 0.0 1.5 5.3 229
08/04/2021 1:40 8.4 46 0.0 0 0.0 1.9 7.0 213
08/04/2021 1:50 8.6 46 0.0 0 0.0 1.7 6.1 213
08/04/2021 2:00 9.4 45 0.0 0 0.0 2.4 8.5 195
08/04/2021 2:10 9.7 47 0.0 0 0.0 2.6 9.5 182
08/04/2021 2:20 9.7 49 0.0 0 0.0 2.6 9.3 199
08/04/2021 2:30 9.4 50 0.0 0 0.0 2.5 9.1 191
08/04/2021 2:40 9.8 50 0.0 0 0.0 2.8 10.1 194
08/04/2021 2:50 10.2 49 0.0 0 0.0 3.0 10.7 199
08/04/2021 3:00 10.3 49 0.0 0 0.0 2.1 7.7 172
08/04/2021 3:10 10.1 50 0.0 0 0.0 2.5 8.9 185
08/04/2021 3:20 10.0 50 0.0 0 0.0 2.8 10.1 188
08/04/2021 3:30 10.2 49 0.0 0 0.0 3.3 11.9 192
08/04/2021 3:40 10.2 50 0.0 0 0.0 4.0 14.2 204
08/04/2021 3:50 10.2 49 0.0 0 0.0 3.7 13.2 197
08/04/2021 4:00 10.2 50 0.0 0 0.0 4.4 15.9 203
08/04/2021 4:10 10.4 49 0.0 0 0.0 5.5 19.8 194
08/04/2021 4:20 10.6 48 0.0 0 0.0 5.4 19.5 176
08/04/2021 4:30 10.5 49 0.0 0 0.0 5.8 20.7 187
08/04/2021 4:40 10.4 49 0.0 0 0.0 5.6 20.1 198
08/04/2021 4:50 10.3 50 0.0 0 0.0 5.4 19.5 198
08/04/2021 5:00 10.2 50 0.0 0 0.0 5.2 18.6 199
08/04/2021 5:10 10.1 51 0.0 0 0.0 5.5 19.9 206
08/04/2021 5:20 10.0 52 0.0 0 0.0 6.3 22.7 206
08/04/2021 5:30 9.9 52 0.0 0 0.0 6.1 22.1 200
08/04/2021 5:40 9.7 53 0.0 0 0.0 6.0 21.5 199
08/04/2021 5:50 9.7 54 0.0 0 0.0 6.6 23.8 201
08/04/2021 6:00 9.5 55 8.8 0 0.0 6.3 22.7 200
08/04/2021 6:10 9.4 55 21.5 0 0.0 6.6 23.6 200
08/04/2021 6:20 9.3 56 29.2 0 0.0 7.2 25.8 197
08/04/2021 6:30 9.3 56 96.3 514 0.0 6.3 22.6 196
08/04/2021 6:40 9.3 57 135.8 600 0.0 6.8 24.3 199
08/04/2021 6:50 9.3 57 169.1 600 0.0 7.4 26.8 196
08/04/2021 7:00 9.4 57 204.4 600 0.0 7.5 26.8 203
08/04/2021 7:10 9.4 57 234.6 600 0.0 6.8 24.4 204
08/04/2021 7:20 9.5 57 247.9 600 0.0 7.3 26.3 206
08/04/2021 7:30 9.8 56 292.4 600 0.0 7.1 25.6 202
08/04/2021 7:40 10.0 55 335.8 600 0.0 7.1 25.5 204
08/04/2021 7:50 10.2 54 372.4 600 0.0 7.9 28.5 196
08/04/2021 8:00 10.4 54 407.4 600 0.0 7.2 26.0 189
08/04/2021 8:10 10.8 54 435.4 600 0.0 6.7 24.1 186
08/04/2021 8:20 11.0 53 475.9 600 0.0 7.3 26.4 193
08/04/2021 8:30 11.4 52 507.1 600 0.0 6.7 24.0 180
08/04/2021 8:40 11.8 52 529.2 600 0.0 6.1 21.9 182
08/04/2021 8:50 11.9 52 561.3 600 0.0 6.5 23.5 179
08/04/2021 9:00 12.2 52 593.0 600 0.0 8.1 29.2 190
08/04/2021 9:10 12.4 52 622.6 600 0.0 7.2 26.1 190
08/04/2021 9:20 12.8 51 638.4 600 0.0 6.4 22.9 189
08/04/2021 9:30 13.0 51 665.5 600 0.0 6.3 22.5 193
08/04/2021 9:40 13.4 50 692.8 600 0.0 6.1 21.8 193
08/04/2021 9:50 13.8 50 726.1 600 0.0 4.9 17.6 194
08/04/2021 10:00 14.2 49 730.9 600 0.0 5.1 18.5 198
08/04/2021 10:10 14.1 49 754.4 600 0.0 6.9 25.0 212
08/04/2021 10:20 14.2 49 757.4 600 0.0 6.3 22.8 202
08/04/2021 10:30 14.6 48 760.3 600 0.0 5.7 20.6 194
08/04/2021 10:40 14.8 48 791.7 600 0.0 6.5 23.3 193
08/04/2021 10:50 14.7 48 812.0 600 0.0 7.0 25.1 189
08/04/2021 11:00 15.2 47 810.0 600 0.0 6.1 21.9 192
08/04/2021 11:10 15.2 47 817.0 600 0.0 6.3 22.6 184
08/04/2021 11:20 15.5 47 855.0 600 0.0 6.8 24.6 194
08/04/2021 11:30 16.1 46 851.0 600 0.0 6.4 22.9 205
08/04/2021 11:40 16.2 45 859.0 600 0.0 6.2 22.2 201
08/04/2021 11:50 16.3 45 843.0 600 0.0 7.0 25.1 198
08/04/2021 12:00 16.6 45 874.0 600 0.0 5.5 19.8 199
08/04/2021 12:10 16.8 44 860.0 600 0.0 6.2 22.2 200
08/04/2021 12:20 17.2 44 805.0 546 0.0 4.7 16.9 197
08/04/2021 12:30 19.0 41 143.9 0 0.0 2.1 7.6 42
08/04/2021 12:40 20.3 39 415.8 242 0.3 5.0 18.0 164
08/04/2021 12:50 18.4 42 845.0 600 0.0 4.2 15.1 195
08/04/2021 13:00 18.4 42 853.0 600 0.0 4.8 17.3 179
08/04/2021 13:10 18.4 41 735.3 600 0.0 5.7 20.6 202
08/04/2021 13:20 18.3 42 739.0 600 0.0 5.3 19.2 206
08/04/2021 13:30 18.3 42 728.4 600 0.0 6.3 22.6 210
08/04/2021 13:40 18.3 42 702.5 600 0.0 6.1 21.9 197
08/04/2021 13:50 18.9 41 757.5 600 0.0 5.9 21.3 201
08/04/2021 14:00 19.2 40 689.5 600 0.0 5.2 18.6 203
08/04/2021 14:10 19.0 40 672.9 600 0.0 6.4 22.9 198
08/04/2021 14:20 19.1 40 578.2 600 0.0 5.3 19.2 206
08/04/2021 14:30 18.6 41 423.6 600 0.0 6.0 21.7 208
08/04/2021 14:40 18.6 41 563.3 600 0.0 5.5 19.8 211
08/04/2021 14:50 19.4 40 661.2 600 0.0 5.2 18.7 203
08/04/2021 15:00 19.4 40 447.6 600 0.0 5.0 18.0 207
08/04/2021 15:10 18.9 41 369.4 446 0.0 5.3 19.2 206
08/04/2021 15:20 18.6 42 325.0 440 0.0 5.2 18.8 199
08/04/2021 15:30 18.5 42 381.4 600 0.0 6.0 21.7 204
08/04/2021 15:40 18.8 42 419.1 600 0.0 4.6 16.4 205
08/04/2021 15:50 19.1 42 315.6 432 0.0 4.5 16.2 193
08/04/2021 16:00 18.6 43 301.7 450 0.0 5.1 18.4 202
08/04/2021 16:10 18.9 42 379.0 600 0.0 5.0 18.0 206
08/04/2021 16:20 19.0 42 233.5 230 0.0 4.6 16.6 199
08/04/2021 16:30 18.7 43 256.6 358 0.0 4.3 15.5 192
08/04/2021 16:40 19.3 42 344.4 600 0.0 4.9 17.6 198
08/04/2021 16:50 18.9 42 147.2 50 0.0 5.2 18.6 201
08/04/2021 17:00 18.4 43 109.9 0 0.0 4.9 17.5 207
08/04/2021 17:10 18.3 44 138.2 200 0.0 5.0 18.0 208
08/04/2021 17:20 18.5 44 166.0 376 0.0 4.4 15.9 197
08/04/2021 17:30 18.8 43 141.9 396 0.0 4.5 16.2 203
08/04/2021 17:40 18.5 44 138.2 532 0.0 5.0 18.1 202
08/04/2021 17:50 18.7 43 135.3 600 0.0 5.5 19.8 203
08/04/2021 18:00 18.5 43 90.1 518 0.0 5.3 19.0 209
08/04/2021 18:10 18.1 44 46.6 94 0.0 5.0 17.9 202
08/04/2021 18:20 17.9 45 25.7 0 0.0 6.0 21.7 209
08/04/2021 18:30 17.7 45 3.7 0 0.0 6.6 23.7 206
08/04/2021 18:40 17.6 46 0.0 0 0.0 6.5 23.3 210
08/04/2021 18:50 17.3 47 0.0 0 0.0 5.9 21.1 211
08/04/2021 19:00 17.2 47 0.0 0 0.0 5.7 20.6 204
08/04/2021 19:10 17.1 47 0.0 0 0.0 5.5 19.6 204
08/04/2021 19:20 16.9 48 0.0 0 0.0 5.2 18.8 199
08/04/2021 19:30 16.9 48 0.0 0 0.0 5.1 18.2 198
08/04/2021 19:40 16.8 48 0.0 0 0.0 5.3 19.1 198
08/04/2021 19:50 16.8 48 0.0 0 0.0 5.0 17.9 194
08/04/2021 20:00 16.7 49 0.0 0 0.0 4.7 16.8 193
08/04/2021 20:10 16.7 49 0.0 0 0.0 5.3 18.9 192
08/04/2021 20:20 16.7 49 0.0 0 0.0 4.7 16.9 199
08/04/2021 20:30 16.5 50 0.0 0 0.0 3.9 14.2 195
08/04/2021 20:40 16.4 50 0.0 0 0.0 4.1 14.9 195
08/04/2021 20:50 16.5 50 0.0 0 0.0 4.4 15.7 192
08/04/2021 21:00 16.6 50 0.0 0 0.0 4.2 15.2 201
08/04/2021 21:10 16.6 51 0.0 0 0.0 5.1 18.5 193
08/04/2021 21:20 16.6 51 0.0 0 0.0 5.0 17.9 192
08/04/2021 21:30 16.6 51 0.0 0 0.0 4.5 16.3 190
08/04/2021 21:40 16.5 51 0.0 0 0.0 4.6 16.5 187
08/04/2021 21:50 16.4 52 0.0 0 0.0 3.6 13.0 199
08/04/2021 22:00 16.4 52 0.0 0 0.0 4.5 16.3 198
08/04/2021 22:10 16.5 52 0.0 0 0.0 7.5 26.9 205
08/04/2021 22:20 16.6 51 0.0 0 0.0 6.9 24.8 213
08/04/2021 22:30 16.4 51 0.0 0 0.0 7.0 25.3 206
08/04/2021 22:40 16.4 52 0.0 0 0.0 7.0 25.1 199
08/04/2021 22:50 16.3 52 0.0 0 0.0 7.1 25.5 203
08/04/2021 23:00 16.3 51 0.0 0 0.0 7.8 28.2 208
08/04/2021 23:10 16.1 52 0.0 0 0.0 8.0 28.7 212
08/04/2021 23:20 16.1 51 0.0 0 0.0 8.6 31.0 203
08/04/2021 23:30 15.9 52 0.0 0 0.0 7.9 28.5 206
08/04/2021 23:40 15.8 52 0.0 0 0.0 6.7 24.0 204
08/04/2021 23:50 15.6 52 0.0 0 0.0 5.8 20.8 195
Anterior Página 1 de 1 Siguiente

NOTA: Tipo de datos según el color:
   - Valores diarios o 10 minutos correctos
   - Valores diarios calculados a partir de un número de datos 10 minutos menor que 144 y mayor que 120, o de un número de datos semihorarios menor que 48 y mayor que 40 (caso de las estaciones de INTIA Y Ministerio)
   - Valores diez minutos estimados


Contacto        Enlaces        Aviso legal